sensor_id;sensor_type;location;lat;lon;timestamp;P1;durP1;ratioP1;P2;durP2;ratioP2
19364;SDS011;9818;48.382;10.850;2022-07-05T01:20:43;2.23;;;2.00;;
19364;SDS011;9818;48.382;10.850;2022-07-05T01:23:15;3.17;;;2.20;;
19364;SDS011;9818;48.382;10.850;2022-07-05T01:25:44;2.30;;;2.00;;
19364;SDS011;9818;48.382;10.850;2022-07-05T01:28:14;4.30;;;2.70;;
19364;SDS011;9818;48.382;10.850;2022-07-05T01:30:43;2.30;;;2.00;;
19364;SDS011;9818;48.382;10.850;2022-07-05T01:33:12;2.33;;;2.13;;
19364;SDS011;9818;48.382;10.850;2022-07-05T01:35:41;2.50;;;1.90;;
19364;SDS011;9818;48.382;10.850;2022-07-05T01:38:10;2.30;;;2.10;;
19364;SDS011;9818;48.382;10.850;2022-07-05T01:40:44;2.13;;;1.93;;
19364;SDS011;9818;48.382;10.850;2022-07-05T01:43:15;2.50;;;2.00;;
19364;SDS011;9818;48.382;10.850;2022-07-05T01:45:44;2.47;;;2.27;;
19364;SDS011;9818;48.382;10.850;2022-07-05T01:48:14;2.30;;;2.10;;
19364;SDS011;9818;48.382;10.850;2022-07-05T01:50:47;3.47;;;2.20;;
19364;SDS011;9818;48.382;10.850;2022-07-05T01:53:18;2.90;;;2.50;;
19364;SDS011;9818;48.382;10.850;2022-07-05T01:55:50;2.83;;;2.07;;
19364;SDS011;9818;48.382;10.850;2022-07-05T01:58:19;2.37;;;2.17;;
19364;SDS011;9818;48.382;10.850;2022-07-05T02:00:48;2.33;;;2.10;;
19364;SDS011;9818;48.382;10.850;2022-07-05T02:03:19;2.63;;;2.43;;
19364;SDS011;9818;48.382;10.850;2022-07-05T02:05:48;3.40;;;2.60;;
19364;SDS011;9818;48.382;10.850;2022-07-05T02:08:18;2.80;;;2.50;;
19364;SDS011;9818;48.382;10.850;2022-07-05T02:10:50;2.40;;;2.20;;
19364;SDS011;9818;48.382;10.850;2022-07-05T02:13:18;4.27;;;2.50;;
19364;SDS011;9818;48.382;10.850;2022-07-05T02:15:47;2.57;;;2.37;;
19364;SDS011;9818;48.382;10.850;2022-07-05T02:18:16;2.50;;;2.30;;
19364;SDS011;9818;48.382;10.850;2022-07-05T02:20:45;2.47;;;2.27;;
19364;SDS011;9818;48.382;10.850;2022-07-05T02:23:14;4.70;;;2.77;;
19364;SDS011;9818;48.382;10.850;2022-07-05T02:25:42;2.70;;;2.50;;
19364;SDS011;9818;48.382;10.850;2022-07-05T02:28:14;2.53;;;2.10;;
19364;SDS011;9818;48.382;10.850;2022-07-05T02:30:42;2.40;;;2.20;;
19364;SDS011;9818;48.382;10.850;2022-07-05T02:33:11;2.63;;;2.30;;
19364;SDS011;9818;48.382;10.850;2022-07-05T02:35:40;2.10;;;1.90;;
19364;SDS011;9818;48.382;10.850;2022-07-05T02:38:09;3.10;;;2.60;;
19364;SDS011;9818;48.382;10.850;2022-07-05T02:40:37;2.73;;;2.53;;
19364;SDS011;9818;48.382;10.850;2022-07-05T02:43:06;2.93;;;2.57;;
19364;SDS011;9818;48.382;10.850;2022-07-05T02:45:37;3.40;;;3.03;;
19364;SDS011;9818;48.382;10.850;2022-07-05T02:48:06;3.23;;;2.57;;
19364;SDS011;9818;48.382;10.850;2022-07-05T02:50:36;3.07;;;2.77;;
19364;SDS011;9818;48.382;10.850;2022-07-05T02:53:04;3.57;;;2.77;;
19364;SDS011;9818;48.382;10.850;2022-07-05T02:55:33;3.77;;;2.80;;
19364;SDS011;9818;48.382;10.850;2022-07-05T02:58:02;3.23;;;2.80;;
19364;SDS011;9818;48.382;10.850;2022-07-05T03:00:31;5.07;;;2.70;;
19364;SDS011;9818;48.382;10.850;2022-07-05T03:03:03;3.43;;;3.00;;
19364;SDS011;9818;48.382;10.850;2022-07-05T03:05:31;4.20;;;2.70;;
19364;SDS011;9818;48.382;10.850;2022-07-05T03:08:00;2.97;;;2.77;;
19364;SDS011;9818;48.382;10.850;2022-07-05T03:10:29;3.90;;;2.90;;
19364;SDS011;9818;48.382;10.850;2022-07-05T03:12:58;5.80;;;2.90;;
19364;SDS011;9818;48.382;10.850;2022-07-05T03:15:26;5.13;;;2.73;;
19364;SDS011;9818;48.382;10.850;2022-07-05T03:17:55;4.87;;;3.20;;
19364;SDS011;9818;48.382;10.850;2022-07-05T03:20:27;3.83;;;2.90;;
19364;SDS011;9818;48.382;10.850;2022-07-05T03:22:55;5.90;;;3.00;;
19364;SDS011;9818;48.382;10.850;2022-07-05T03:25:25;4.03;;;3.00;;
19364;SDS011;9818;48.382;10.850;2022-07-05T03:27:53;3.63;;;3.07;;
19364;SDS011;9818;48.382;10.850;2022-07-05T03:30:22;5.53;;;2.90;;
19364;SDS011;9818;48.382;10.850;2022-07-05T03:32:51;4.30;;;3.20;;
19364;SDS011;9818;48.382;10.850;2022-07-05T03:35:20;2.90;;;2.60;;
19364;SDS011;9818;48.382;10.850;2022-07-05T03:37:51;4.13;;;3.37;;
19364;SDS011;9818;48.382;10.850;2022-07-05T03:40:20;5.20;;;3.00;;
19364;SDS011;9818;48.382;10.850;2022-07-05T03:42:48;4.97;;;3.20;;
19364;SDS011;9818;48.382;10.850;2022-07-05T03:45:17;3.10;;;2.80;;
19364;SDS011;9818;48.382;10.850;2022-07-05T03:47:46;3.73;;;3.03;;
19364;SDS011;9818;48.382;10.850;2022-07-05T03:50:14;3.40;;;2.90;;
19364;SDS011;9818;48.382;10.850;2022-07-05T03:52:43;5.87;;;2.50;;
19364;SDS011;9818;48.382;10.850;2022-07-05T03:55:14;3.50;;;3.00;;
19364;SDS011;9818;48.382;10.850;2022-07-05T03:57:43;3.97;;;3.33;;
19364;SDS011;9818;48.382;10.850;2022-07-05T04:00:13;5.97;;;3.30;;
19364;SDS011;9818;48.382;10.850;2022-07-05T04:02:43;3.43;;;3.07;;
19364;SDS011;9818;48.382;10.850;2022-07-05T04:05:11;4.43;;;3.00;;
19364;SDS011;9818;48.382;10.850;2022-07-05T04:07:49;3.67;;;2.87;;
19364;SDS011;9818;48.382;10.850;2022-07-05T05:32:37;3.97;;;2.28;;
19364;SDS011;9818;48.382;10.850;2022-07-05T06:10:16;2.63;;;1.75;;
19364;SDS011;9818;48.382;10.850;2022-07-05T06:12:46;2.22;;;1.80;;
19364;SDS011;9818;48.382;10.850;2022-07-05T06:15:15;1.33;;;1.23;;
19364;SDS011;9818;48.382;10.850;2022-07-05T06:17:44;3.70;;;1.67;;
19364;SDS011;9818;48.382;10.850;2022-07-05T06:20:14;2.08;;;1.30;;
19364;SDS011;9818;48.382;10.850;2022-07-05T06:22:47;1.30;;;1.20;;
19364;SDS011;9818;48.382;10.850;2022-07-05T06:25:16;1.45;;;1.30;;
19364;SDS011;9818;48.382;10.850;2022-07-05T06:27:45;1.45;;;1.33;;
19364;SDS011;9818;48.382;10.850;2022-07-05T06:30:16;3.45;;;1.35;;
19364;SDS011;9818;48.382;10.850;2022-07-05T06:32:47;2.45;;;1.30;;
19364;SDS011;9818;48.382;10.850;2022-07-05T06:35:17;2.08;;;1.33;;
19364;SDS011;9818;48.382;10.850;2022-07-05T06:37:49;1.50;;;1.40;;
19364;SDS011;9818;48.382;10.850;2022-07-05T07:20:28;1.90;;;1.20;;
19364;SDS011;9818;48.382;10.850;2022-07-05T07:22:59;1.50;;;1.40;;
19364;SDS011;9818;48.382;10.850;2022-07-05T07:25:28;1.92;;;1.50;;
19364;SDS011;9818;48.382;10.850;2022-07-05T07:27:57;1.90;;;1.30;;
19364;SDS011;9818;48.382;10.850;2022-07-05T07:30:27;2.33;;;1.20;;
19364;SDS011;9818;48.382;10.850;2022-07-05T07:32:56;1.75;;;1.45;;
19364;SDS011;9818;48.382;10.850;2022-07-05T07:35:25;1.20;;;1.10;;
19364;SDS011;9818;48.382;10.850;2022-07-05T07:37:53;1.00;;;1.00;;
19364;SDS011;9818;48.382;10.850;2022-07-05T07:45:22;2.65;;;1.30;;
19364;SDS011;9818;48.382;10.850;2022-07-05T07:47:52;1.70;;;1.20;;
19364;SDS011;9818;48.382;10.850;2022-07-05T07:50:20;1.40;;;1.30;;
19364;SDS011;9818;48.382;10.850;2022-07-05T07:52:49;2.05;;;1.35;;
19364;SDS011;9818;48.382;10.850;2022-07-05T07:55:18;1.58;;;1.25;;
19364;SDS011;9818;48.382;10.850;2022-07-05T07:57:50;1.35;;;1.25;;
19364;SDS011;9818;48.382;10.850;2022-07-05T08:02:47;1.63;;;1.38;;
19364;SDS011;9818;48.382;10.850;2022-07-05T08:33:06;1.27;;;1.17;;
19364;SDS011;9818;48.382;10.850;2022-07-05T08:35:35;1.10;;;1.00;;
19364;SDS011;9818;48.382;10.850;2022-07-05T08:38:04;1.20;;;1.10;;
19364;SDS011;9818;48.382;10.850;2022-07-05T08:40:32;1.02;;;0.90;;
19364;SDS011;9818;48.382;10.850;2022-07-05T08:43:05;0.90;;;0.90;;
19364;SDS011;9818;48.382;10.850;2022-07-05T08:45:38;1.00;;;0.90;;
19364;SDS011;9818;48.382;10.850;2022-07-05T08:48:09;1.88;;;1.10;;
19364;SDS011;9818;48.382;10.850;2022-07-05T08:50:39;1.10;;;1.00;;
19364;SDS011;9818;48.382;10.850;2022-07-05T08:53:08;1.05;;;0.90;;
19364;SDS011;9818;48.382;10.850;2022-07-05T08:55:37;1.23;;;1.10;;
19364;SDS011;9818;48.382;10.850;2022-07-05T08:58:07;3.05;;;1.05;;
19364;SDS011;9818;48.382;10.850;2022-07-05T09:00:38;2.00;;;1.05;;
19364;SDS011;9818;48.382;10.850;2022-07-05T09:03:09;3.10;;;1.02;;
19364;SDS011;9818;48.382;10.850;2022-07-05T09:10:42;0.82;;;0.80;;
19364;SDS011;9818;48.382;10.850;2022-07-05T09:13:11;2.38;;;1.10;;
19364;SDS011;9818;48.382;10.850;2022-07-05T09:58:40;1.30;;;1.20;;
19364;SDS011;9818;48.382;10.850;2022-07-05T10:01:22;1.05;;;1.00;;
19364;SDS011;9818;48.382;10.850;2022-07-05T10:03:54;1.10;;;0.85;;
19364;SDS011;9818;48.382;10.850;2022-07-05T10:06:24;0.98;;;0.90;;
19364;SDS011;9818;48.382;10.850;2022-07-05T10:08:54;2.88;;;0.80;;
19364;SDS011;9818;48.382;10.850;2022-07-05T10:11:23;0.75;;;0.75;;
19364;SDS011;9818;48.382;10.850;2022-07-05T10:13:53;3.95;;;1.15;;
19364;SDS011;9818;48.382;10.850;2022-07-05T10:21:23;1.17;;;0.90;;
19364;SDS011;9818;48.382;10.850;2022-07-05T10:23:53;1.55;;;0.90;;
19364;SDS011;9818;48.382;10.850;2022-07-05T10:26:22;1.75;;;1.00;;
19364;SDS011;9818;48.382;10.850;2022-07-05T10:28:55;0.98;;;0.75;;
19364;SDS011;9818;48.382;10.850;2022-07-05T10:31:24;1.92;;;0.90;;
19364;SDS011;9818;48.382;10.850;2022-07-05T10:33:57;1.45;;;0.70;;
19364;SDS011;9818;48.382;10.850;2022-07-05T10:36:32;0.95;;;0.82;;
19364;SDS011;9818;48.382;10.850;2022-07-05T10:39:03;2.17;;;0.90;;
19364;SDS011;9818;48.382;10.850;2022-07-05T10:41:34;1.02;;;0.90;;
19364;SDS011;9818;48.382;10.850;2022-07-05T10:44:05;1.67;;;0.98;;
19364;SDS011;9818;48.382;10.850;2022-07-05T10:46:37;1.13;;;0.80;;
19364;SDS011;9818;48.382;10.850;2022-07-05T10:49:14;1.13;;;0.90;;
19364;SDS011;9818;48.382;10.850;2022-07-05T10:51:44;2.08;;;1.05;;
19364;SDS011;9818;48.382;10.850;2022-07-05T10:54:13;0.90;;;0.85;;
19364;SDS011;9818;48.382;10.850;2022-07-05T10:56:42;1.00;;;0.90;;
19364;SDS011;9818;48.382;10.850;2022-07-05T15:40:58;1.10;;;1.00;;
19364;SDS011;9818;48.382;10.850;2022-07-05T15:43:27;1.00;;;1.00;;
19364;SDS011;9818;48.382;10.850;2022-07-05T15:45:55;1.33;;;1.02;;
19364;SDS011;9818;48.382;10.850;2022-07-05T18:43:20;0.77;;;0.77;;
19364;SDS011;9818;48.382;10.850;2022-07-05T18:45:49;1.58;;;0.77;;
19364;SDS011;9818;48.382;10.850;2022-07-05T18:48:19;0.88;;;0.80;;
19364;SDS011;9818;48.382;10.850;2022-07-05T18:50:47;2.08;;;1.00;;
19364;SDS011;9818;48.382;10.850;2022-07-05T18:53:19;0.93;;;0.80;;
19364;SDS011;9818;48.382;10.850;2022-07-05T18:55:50;1.17;;;0.80;;
19364;SDS011;9818;48.382;10.850;2022-07-05T18:58:18;1.20;;;0.80;;
19364;SDS011;9818;48.382;10.850;2022-07-05T19:00:47;0.80;;;0.80;;
19364;SDS011;9818;48.382;10.850;2022-07-05T19:03:16;1.73;;;0.90;;
19364;SDS011;9818;48.382;10.850;2022-07-05T19:05:45;1.02;;;0.90;;
19364;SDS011;9818;48.382;10.850;2022-07-05T19:08:28;1.98;;;1.00;;
19364;SDS011;9818;48.382;10.850;2022-07-05T19:11:10;0.80;;;0.80;;
19364;SDS011;9818;48.382;10.850;2022-07-05T19:13:51;0.90;;;0.90;;
19364;SDS011;9818;48.382;10.850;2022-07-05T19:16:20;1.67;;;0.80;;
19364;SDS011;9818;48.382;10.850;2022-07-05T19:18:48;2.80;;;1.00;;
19364;SDS011;9818;48.382;10.850;2022-07-05T19:21:18;0.67;;;0.67;;
19364;SDS011;9818;48.382;10.850;2022-07-05T19:23:49;1.93;;;1.00;;
19364;SDS011;9818;48.382;10.850;2022-07-05T19:26:18;0.80;;;0.80;;
19364;SDS011;9818;48.382;10.850;2022-07-05T19:28:47;1.07;;;0.97;;
19364;SDS011;9818;48.382;10.850;2022-07-05T19:31:16;0.83;;;0.83;;
19364;SDS011;9818;48.382;10.850;2022-07-05T19:33:45;1.00;;;0.83;;
19364;SDS011;9818;48.382;10.850;2022-07-05T19:36:14;1.73;;;0.90;;
19364;SDS011;9818;48.382;10.850;2022-07-05T19:38:43;1.53;;;0.90;;
19364;SDS011;9818;48.382;10.850;2022-07-05T19:41:15;1.40;;;0.90;;
19364;SDS011;9818;48.382;10.850;2022-07-05T19:43:44;0.83;;;0.80;;
19364;SDS011;9818;48.382;10.850;2022-07-05T19:46:13;1.77;;;0.80;;
19364;SDS011;9818;48.382;10.850;2022-07-05T19:48:51;1.23;;;0.90;;
19364;SDS011;9818;48.382;10.850;2022-07-05T19:51:23;1.83;;;0.80;;
19364;SDS011;9818;48.382;10.850;2022-07-05T19:53:52;1.03;;;0.83;;
19364;SDS011;9818;48.382;10.850;2022-07-05T19:56:25;1.20;;;0.80;;
19364;SDS011;9818;48.382;10.850;2022-07-05T19:58:54;1.33;;;0.80;;
19364;SDS011;9818;48.382;10.850;2022-07-05T20:01:24;0.90;;;0.73;;
19364;SDS011;9818;48.382;10.850;2022-07-05T20:03:54;2.00;;;0.90;;
19364;SDS011;9818;48.382;10.850;2022-07-05T20:06:23;1.67;;;0.80;;
19364;SDS011;9818;48.382;10.850;2022-07-05T20:08:52;0.80;;;0.80;;
